sensor_id;sensor_type;location;lat;lon;timestamp;temperature;humidity
30865;DHT22;17574;49.418;11.038;2023-03-31T00:01:36;10.60;55.60
30865;DHT22;17574;49.418;11.038;2023-03-31T00:04:10;10.60;55.80
30865;DHT22;17574;49.418;11.038;2023-03-31T00:06:39;10.60;56.80
30865;DHT22;17574;49.418;11.038;2023-03-31T00:09:11;10.60;57.50
30865;DHT22;17574;49.418;11.038;2023-03-31T00:11:38;10.50;57.70
30865;DHT22;17574;49.418;11.038;2023-03-31T00:14:05;10.50;58.40
30865;DHT22;17574;49.418;11.038;2023-03-31T00:16:33;10.50;58.40
30865;DHT22;17574;49.418;11.038;2023-03-31T00:19:00;10.40;58.80
30865;DHT22;17574;49.418;11.038;2023-03-31T00:21:27;10.40;58.50
30865;DHT22;17574;49.418;11.038;2023-03-31T00:24:03;10.40;59.80
30865;DHT22;17574;49.418;11.038;2023-03-31T00:26:30;10.40;60.40
30865;DHT22;17574;49.418;11.038;2023-03-31T00:28:57;10.30;60.30
30865;DHT22;17574;49.418;11.038;2023-03-31T00:31:25;10.30;60.20
30865;DHT22;17574;49.418;11.038;2023-03-31T00:33:56;10.30;60.40
30865;DHT22;17574;49.418;11.038;2023-03-31T00:36:23;10.30;60.40
30865;DHT22;17574;49.418;11.038;2023-03-31T00:38:53;10.20;60.30
30865;DHT22;17574;49.418;11.038;2023-03-31T00:41:21;10.20;60.30
30865;DHT22;17574;49.418;11.038;2023-03-31T00:49:03;10.10;63.00
30865;DHT22;17574;49.418;11.038;2023-03-31T00:51:31;10.00;63.90
30865;DHT22;17574;49.418;11.038;2023-03-31T00:54:00;10.10;64.80
30865;DHT22;17574;49.418;11.038;2023-03-31T00:56:36;10.10;64.60
30865;DHT22;17574;49.418;11.038;2023-03-31T00:59:04;10.00;65.70
30865;DHT22;17574;49.418;11.038;2023-03-31T01:01:33;10.10;66.60
30865;DHT22;17574;49.418;11.038;2023-03-31T01:04:02;10.00;66.40
30865;DHT22;17574;49.418;11.038;2023-03-31T01:06:29;10.10;66.10
30865;DHT22;17574;49.418;11.038;2023-03-31T01:08:56;10.10;66.10
30865;DHT22;17574;49.418;11.038;2023-03-31T01:11:23;10.00;66.00
30865;DHT22;17574;49.418;11.038;2023-03-31T01:13:50;10.00;66.50
30865;DHT22;17574;49.418;11.038;2023-03-31T01:16:18;10.00;66.40
30865;DHT22;17574;49.418;11.038;2023-03-31T01:18:44;10.00;66.20
30865;DHT22;17574;49.418;11.038;2023-03-31T01:21:19;9.90;67.80
30865;DHT22;17574;49.418;11.038;2023-03-31T01:26:35;9.90;68.40
30865;DHT22;17574;49.418;11.038;2023-03-31T01:31:54;9.70;69.60
30865;DHT22;17574;49.418;11.038;2023-03-31T01:47:20;9.60;75.60
30865;DHT22;17574;49.418;11.038;2023-03-31T01:49:54;9.60;76.20
30865;DHT22;17574;49.418;11.038;2023-03-31T01:52:43;9.60;75.40
30865;DHT22;17574;49.418;11.038;2023-03-31T01:55:12;9.60;76.60
30865;DHT22;17574;49.418;11.038;2023-03-31T01:57:44;9.50;78.40
30865;DHT22;17574;49.418;11.038;2023-03-31T02:00:14;9.60;78.00
30865;DHT22;17574;49.418;11.038;2023-03-31T02:02:47;9.60;77.90
30865;DHT22;17574;49.418;11.038;2023-03-31T02:05:19;9.60;78.00
30865;DHT22;17574;49.418;11.038;2023-03-31T02:07:51;9.60;77.40
30865;DHT22;17574;49.418;11.038;2023-03-31T02:10:19;9.60;78.00
30865;DHT22;17574;49.418;11.038;2023-03-31T02:12:47;9.70;78.00
30865;DHT22;17574;49.418;11.038;2023-03-31T02:15:15;9.70;77.30
30865;DHT22;17574;49.418;11.038;2023-03-31T02:17:47;9.70;78.00
30865;DHT22;17574;49.418;11.038;2023-03-31T02:20:16;9.70;78.10
30865;DHT22;17574;49.418;11.038;2023-03-31T02:22:46;9.70;76.60
30865;DHT22;17574;49.418;11.038;2023-03-31T02:25:14;9.80;74.70
30865;DHT22;17574;49.418;11.038;2023-03-31T02:27:43;9.70;75.10
30865;DHT22;17574;49.418;11.038;2023-03-31T02:30:12;9.80;75.50
30865;DHT22;17574;49.418;11.038;2023-03-31T02:32:40;9.80;74.00
30865;DHT22;17574;49.418;11.038;2023-03-31T02:35:11;9.70;73.30
30865;DHT22;17574;49.418;11.038;2023-03-31T02:37:38;9.70;74.00
30865;DHT22;17574;49.418;11.038;2023-03-31T02:40:07;9.70;74.10
30865;DHT22;17574;49.418;11.038;2023-03-31T02:42:36;9.70;73.80
30865;DHT22;17574;49.418;11.038;2023-03-31T02:45:03;9.70;72.80
30865;DHT22;17574;49.418;11.038;2023-03-31T02:47:30;9.70;73.00
30865;DHT22;17574;49.418;11.038;2023-03-31T02:49:58;9.70;72.50
30865;DHT22;17574;49.418;11.038;2023-03-31T02:52:37;9.70;71.10
30865;DHT22;17574;49.418;11.038;2023-03-31T03:00:25;9.70;69.60
30865;DHT22;17574;49.418;11.038;2023-03-31T03:03:03;9.70;69.60
30865;DHT22;17574;49.418;11.038;2023-03-31T03:08:22;9.70;69.60
30865;DHT22;17574;49.418;11.038;2023-03-31T03:10:58;9.70;69.60
30865;DHT22;17574;49.418;11.038;2023-03-31T03:13:34;9.50;68.20
30865;DHT22;17574;49.418;11.038;2023-03-31T03:16:24;9.70;69.60
30865;DHT22;17574;49.418;11.038;2023-03-31T03:18:56;9.80;69.70
30865;DHT22;17574;49.418;11.038;2023-03-31T03:21:23;9.70;69.60
30865;DHT22;17574;49.418;11.038;2023-03-31T03:23:50;9.80;69.70
30865;DHT22;17574;49.418;11.038;2023-03-31T03:26:18;9.80;69.70
30865;DHT22;17574;49.418;11.038;2023-03-31T03:28:50;9.80;69.70
30865;DHT22;17574;49.418;11.038;2023-03-31T03:31:16;9.80;69.50
30865;DHT22;17574;49.418;11.038;2023-03-31T03:33:43;9.80;68.00
30865;DHT22;17574;49.418;11.038;2023-03-31T03:36:10;9.80;67.60
30865;DHT22;17574;49.418;11.038;2023-03-31T03:38:37;9.80;68.20
30865;DHT22;17574;49.418;11.038;2023-03-31T03:41:04;9.80;68.00
30865;DHT22;17574;49.418;11.038;2023-03-31T03:43:31;9.80;67.90
30865;DHT22;17574;49.418;11.038;2023-03-31T03:45:57;9.90;68.50
30865;DHT22;17574;49.418;11.038;2023-03-31T03:48:24;9.80;69.70
30865;DHT22;17574;49.418;11.038;2023-03-31T03:50:52;9.90;68.70
30865;DHT22;17574;49.418;11.038;2023-03-31T03:53:19;9.90;69.70
30865;DHT22;17574;49.418;11.038;2023-03-31T03:55:46;9.90;69.80
30865;DHT22;17574;49.418;11.038;2023-03-31T03:58:15;9.90;69.80
30865;DHT22;17574;49.418;11.038;2023-03-31T04:00:42;9.90;71.30
30865;DHT22;17574;49.418;11.038;2023-03-31T04:03:11;9.90;71.80
30865;DHT22;17574;49.418;11.038;2023-03-31T04:05:38;9.90;70.60
30865;DHT22;17574;49.418;11.038;2023-03-31T04:08:04;9.90;70.70
30865;DHT22;17574;49.418;11.038;2023-03-31T04:10:33;9.90;71.00
30865;DHT22;17574;49.418;11.038;2023-03-31T04:13:00;9.90;69.80
30865;DHT22;17574;49.418;11.038;2023-03-31T04:15:27;9.90;70.60
30865;DHT22;17574;49.418;11.038;2023-03-31T04:17:54;9.90;69.70
30865;DHT22;17574;49.418;11.038;2023-03-31T04:20:24;9.90;69.70
30865;DHT22;17574;49.418;11.038;2023-03-31T04:22:53;10.00;68.90
30865;DHT22;17574;49.418;11.038;2023-03-31T04:25:20;10.00;68.90
30865;DHT22;17574;49.418;11.038;2023-03-31T04:27:49;10.00;68.90
30865;DHT22;17574;49.418;11.038;2023-03-31T04:30:20;10.00;68.90
30865;DHT22;17574;49.418;11.038;2023-03-31T04:32:54;10.00;68.90
30865;DHT22;17574;49.418;11.038;2023-03-31T04:35:22;10.00;69.00
30865;DHT22;17574;49.418;11.038;2023-03-31T04:37:50;10.00;68.90
30865;DHT22;17574;49.418;11.038;2023-03-31T04:40:17;10.00;69.00
30865;DHT22;17574;49.418;11.038;2023-03-31T04:42:44;10.10;69.20
30865;DHT22;17574;49.418;11.038;2023-03-31T04:45:11;10.10;69.90
30865;DHT22;17574;49.418;11.038;2023-03-31T04:47:38;10.10;69.00
30865;DHT22;17574;49.418;11.038;2023-03-31T04:50:05;10.10;69.00
30865;DHT22;17574;49.418;11.038;2023-03-31T04:52:32;10.10;70.20
30865;DHT22;17574;49.418;11.038;2023-03-31T04:54:58;10.10;70.30
30865;DHT22;17574;49.418;11.038;2023-03-31T04:57:25;10.10;69.00
30865;DHT22;17574;49.418;11.038;2023-03-31T04:59:51;10.10;69.00
30865;DHT22;17574;49.418;11.038;2023-03-31T05:02:18;10.10;68.70
30865;DHT22;17574;49.418;11.038;2023-03-31T05:04:51;10.10;69.00
30865;DHT22;17574;49.418;11.038;2023-03-31T05:07:17;10.20;69.10
30865;DHT22;17574;49.418;11.038;2023-03-31T05:09:45;10.20;69.10
30865;DHT22;17574;49.418;11.038;2023-03-31T05:12:12;10.20;69.10
30865;DHT22;17574;49.418;11.038;2023-03-31T05:14:38;10.20;69.10
30865;DHT22;17574;49.418;11.038;2023-03-31T05:17:05;10.10;69.00
30865;DHT22;17574;49.418;11.038;2023-03-31T05:19:32;10.10;69.00
30865;DHT22;17574;49.418;11.038;2023-03-31T05:21:58;10.20;69.10
30865;DHT22;17574;49.418;11.038;2023-03-31T05:24:25;10.20;69.50
30865;DHT22;17574;49.418;11.038;2023-03-31T05:26:53;10.20;70.00
30865;DHT22;17574;49.418;11.038;2023-03-31T05:29:21;10.20;69.10
30865;DHT22;17574;49.418;11.038;2023-03-31T05:31:49;10.20;69.10
30865;DHT22;17574;49.418;11.038;2023-03-31T05:34:16;10.20;68.40
30865;DHT22;17574;49.418;11.038;2023-03-31T05:36:43;10.20;69.10
30865;DHT22;17574;49.418;11.038;2023-03-31T05:39:09;10.20;68.40
30865;DHT22;17574;49.418;11.038;2023-03-31T05:41:36;10.20;69.10
30865;DHT22;17574;49.418;11.038;2023-03-31T05:44:02;10.20;69.10
30865;DHT22;17574;49.418;11.038;2023-03-31T05:46:29;10.20;69.10
30865;DHT22;17574;49.418;11.038;2023-03-31T05:48:56;10.30;68.20
30865;DHT22;17574;49.418;11.038;2023-03-31T05:51:24;10.30;68.50
30865;DHT22;17574;49.418;11.038;2023-03-31T05:53:50;10.30;68.00
30865;DHT22;17574;49.418;11.038;2023-03-31T05:56:17;10.30;67.40
30865;DHT22;17574;49.418;11.038;2023-03-31T05:58:44;10.30;66.00
30865;DHT22;17574;49.418;11.038;2023-03-31T06:01:12;10.40;65.90
30865;DHT22;17574;49.418;11.038;2023-03-31T06:03:43;10.40;65.10
30865;DHT22;17574;49.418;11.038;2023-03-31T06:06:09;10.40;64.50
30865;DHT22;17574;49.418;11.038;2023-03-31T06:08:40;10.40;63.60
30865;DHT22;17574;49.418;11.038;2023-03-31T06:11:08;10.40;63.70
30865;DHT22;17574;49.418;11.038;2023-03-31T06:13:35;10.40;63.40
30865;DHT22;17574;49.418;11.038;2023-03-31T06:16:02;10.40;64.90
30865;DHT22;17574;49.418;11.038;2023-03-31T06:18:29;10.40;63.80
30865;DHT22;17574;49.418;11.038;2023-03-31T06:20:56;10.40;63.50
30865;DHT22;17574;49.418;11.038;2023-03-31T06:23:23;10.50;62.30
30865;DHT22;17574;49.418;11.038;2023-03-31T06:25:50;10.50;61.70
30865;DHT22;17574;49.418;11.038;2023-03-31T06:28:17;10.50;62.70
30865;DHT22;17574;49.418;11.038;2023-03-31T06:30:44;10.50;63.20
30865;DHT22;17574;49.418;11.038;2023-03-31T06:33:11;10.50;63.00
30865;DHT22;17574;49.418;11.038;2023-03-31T06:35:39;10.50;63.50
30865;DHT22;17574;49.418;11.038;2023-03-31T06:38:06;10.50;65.00
30865;DHT22;17574;49.418;11.038;2023-03-31T06:40:33;10.50;65.00
30865;DHT22;17574;49.418;11.038;2023-03-31T06:42:59;10.40;65.50
30865;DHT22;17574;49.418;11.038;2023-03-31T06:45:26;10.50;66.30
30865;DHT22;17574;49.418;11.038;2023-03-31T06:47:53;10.50;67.10
30865;DHT22;17574;49.418;11.038;2023-03-31T06:50:19;10.60;69.40
30865;DHT22;17574;49.418;11.038;2023-03-31T06:52:46;10.50;69.30
30865;DHT22;17574;49.418;11.038;2023-03-31T06:55:12;10.60;73.30
30865;DHT22;17574;49.418;11.038;2023-03-31T06:57:40;10.50;75.00
30865;DHT22;17574;49.418;11.038;2023-03-31T07:00:08;10.50;76.70
30865;DHT22;17574;49.418;11.038;2023-03-31T07:02:34;10.50;78.60
30865;DHT22;17574;49.418;11.038;2023-03-31T07:05:03;10.50;80.30
30865;DHT22;17574;49.418;11.038;2023-03-31T07:07:30;10.50;81.90
30865;DHT22;17574;49.418;11.038;2023-03-31T07:09:57;10.50;83.20
30865;DHT22;17574;49.418;11.038;2023-03-31T07:12:23;10.50;84.30
30865;DHT22;17574;49.418;11.038;2023-03-31T07:14:50;10.50;85.90
30865;DHT22;17574;49.418;11.038;2023-03-31T07:17:17;10.50;87.50
30865;DHT22;17574;49.418;11.038;2023-03-31T07:19:43;10.50;90.10
30865;DHT22;17574;49.418;11.038;2023-03-31T07:22:13;10.50;90.70
30865;DHT22;17574;49.418;11.038;2023-03-31T07:24:41;10.50;91.20
30865;DHT22;17574;49.418;11.038;2023-03-31T07:27:09;10.50;90.80
30865;DHT22;17574;49.418;11.038;2023-03-31T07:29:36;10.50;90.80
30865;DHT22;17574;49.418;11.038;2023-03-31T07:32:03;10.60;91.00
30865;DHT22;17574;49.418;11.038;2023-03-31T07:34:29;10.60;91.80
30865;DHT22;17574;49.418;11.038;2023-03-31T07:36:56;10.60;91.80
30865;DHT22;17574;49.418;11.038;2023-03-31T07:39:23;10.60;91.80
30865;DHT22;17574;49.418;11.038;2023-03-31T07:41:50;10.60;92.20
30865;DHT22;17574;49.418;11.038;2023-03-31T07:44:16;10.90;91.90
30865;DHT22;17574;49.418;11.038;2023-03-31T07:46:44;10.70;91.80
30865;DHT22;17574;49.418;11.038;2023-03-31T07:49:11;10.60;91.80
30865;DHT22;17574;49.418;11.038;2023-03-31T07:51:41;10.60;92.50
30865;DHT22;17574;49.418;11.038;2023-03-31T07:54:07;10.60;93.00
30865;DHT22;17574;49.418;11.038;2023-03-31T07:56:34;10.50;93.40
30865;DHT22;17574;49.418;11.038;2023-03-31T07:59:01;10.50;93.90
30865;DHT22;17574;49.418;11.038;2023-03-31T08:01:27;10.60;94.00
30865;DHT22;17574;49.418;11.038;2023-03-31T08:03:55;10.40;94.80
30865;DHT22;17574;49.418;11.038;2023-03-31T08:06:23;10.40;95.20
30865;DHT22;17574;49.418;11.038;2023-03-31T08:08:50;10.40;95.30
30865;DHT22;17574;49.418;11.038;2023-03-31T08:11:16;10.40;95.30
30865;DHT22;17574;49.418;11.038;2023-03-31T08:13:43;10.40;95.90
30865;DHT22;17574;49.418;11.038;2023-03-31T08:16:10;10.40;96.50
30865;DHT22;17574;49.418;11.038;2023-03-31T08:18:36;10.40;96.90
30865;DHT22;17574;49.418;11.038;2023-03-31T08:21:03;10.40;97.00
30865;DHT22;17574;49.418;11.038;2023-03-31T08:23:30;10.40;97.00
30865;DHT22;17574;49.418;11.038;2023-03-31T08:26:10;10.40;97.10
30865;DHT22;17574;49.418;11.038;2023-03-31T08:28:39;10.40;96.90
30865;DHT22;17574;49.418;11.038;2023-03-31T08:31:06;10.50;97.90
30865;DHT22;17574;49.418;11.038;2023-03-31T08:33:33;10.50;98.50
30865;DHT22;17574;49.418;11.038;2023-03-31T08:36:01;10.60;98.60
30865;DHT22;17574;49.418;11.038;2023-03-31T08:38:28;10.60;98.60
30865;DHT22;17574;49.418;11.038;2023-03-31T08:41:01;10.70;98.30
30865;DHT22;17574;49.418;11.038;2023-03-31T08:43:29;10.80;97.50
30865;DHT22;17574;49.418;11.038;2023-03-31T08:45:58;10.90;95.80
30865;DHT22;17574;49.418;11.038;2023-03-31T08:48:28;11.00;94.40
30865;DHT22;17574;49.418;11.038;2023-03-31T08:50:57;11.10;93.70
30865;DHT22;17574;49.418;11.038;2023-03-31T08:53:28;11.10;93.60
30865;DHT22;17574;49.418;11.038;2023-03-31T08:55:56;11.00;94.10
30865;DHT22;17574;49.418;11.038;2023-03-31T09:00:53;11.20;94.50
30865;DHT22;17574;49.418;11.038;2023-03-31T09:03:30;11.40;94.10
30865;DHT22;17574;49.418;11.038;2023-03-31T09:06:08;11.50;94.30
30865;DHT22;17574;49.418;11.038;2023-03-31T09:08:38;11.50;93.10
30865;DHT22;17574;49.418;11.038;2023-03-31T09:16:26;11.70;92.20
30865;DHT22;17574;49.418;11.038;2023-03-31T09:18:57;11.90;91.10
30865;DHT22;17574;49.418;11.038;2023-03-31T09:21:30;12.00;90.30
30865;DHT22;17574;49.418;11.038;2023-03-31T09:26:40;12.10;85.50
30865;DHT22;17574;49.418;11.038;2023-03-31T09:29:15;12.30;87.50
30865;DHT22;17574;49.418;11.038;2023-03-31T09:31:45;12.30;81.90
30865;DHT22;17574;49.418;11.038;2023-03-31T09:34:13;12.30;78.10
30865;DHT22;17574;49.418;11.038;2023-03-31T09:36:41;12.40;78.30
30865;DHT22;17574;49.418;11.038;2023-03-31T09:39:10;12.60;79.60
30865;DHT22;17574;49.418;11.038;2023-03-31T09:41:37;12.80;77.00
30865;DHT22;17574;49.418;11.038;2023-03-31T09:44:08;12.90;71.10
30865;DHT22;17574;49.418;11.038;2023-03-31T09:46:38;13.10;65.70
30865;DHT22;17574;49.418;11.038;2023-03-31T09:49:13;13.60;61.70
30865;DHT22;17574;49.418;11.038;2023-03-31T09:51:41;15.60;48.80
30865;DHT22;17574;49.418;11.038;2023-03-31T09:54:12;18.70;13.70
30865;DHT22;17574;49.418;11.038;2023-03-31T09:59:13;23.10;1.00
30865;DHT22;17574;49.418;11.038;2023-03-31T10:01:41;24.60;1.00
30865;DHT22;17574;49.418;11.038;2023-03-31T10:04:07;25.50;1.00
30865;DHT22;17574;49.418;11.038;2023-03-31T10:06:37;26.40;1.00
30865;DHT22;17574;49.418;11.038;2023-03-31T10:09:05;25.50;1.00
30865;DHT22;17574;49.418;11.038;2023-03-31T10:11:32;24.80;1.00
30865;DHT22;17574;49.418;11.038;2023-03-31T10:14:03;25.30;1.00
30865;DHT22;17574;49.418;11.038;2023-03-31T10:16:31;26.00;1.00
30865;DHT22;17574;49.418;11.038;2023-03-31T10:21:44;28.40;1.00
30865;DHT22;17574;49.418;11.038;2023-03-31T10:24:11;29.20;1.00
30865;DHT22;17574;49.418;11.038;2023-03-31T10:26:38;29.80;1.00
30865;DHT22;17574;49.418;11.038;2023-03-31T10:29:09;29.50;1.00
30865;DHT22;17574;49.418;11.038;2023-03-31T10:31:37;29.90;1.00
30865;DHT22;17574;49.418;11.038;2023-03-31T10:34:08;28.90;1.00
30865;DHT22;17574;49.418;11.038;2023-03-31T10:36:37;26.80;1.00
30865;DHT22;17574;49.418;11.038;2023-03-31T10:39:11;25.30;1.00
30865;DHT22;17574;49.418;11.038;2023-03-31T10:41:40;24.40;1.00
30865;DHT22;17574;49.418;11.038;2023-03-31T10:46:53;25.80;1.00
30865;DHT22;17574;49.418;11.038;2023-03-31T10:49:23;26.40;1.00
30865;DHT22;17574;49.418;11.038;2023-03-31T10:51:56;26.00;1.00
30865;DHT22;17574;49.418;11.038;2023-03-31T10:54:24;26.20;1.00
30865;DHT22;17574;49.418;11.038;2023-03-31T10:56:52;27.00;1.00
30865;DHT22;17574;49.418;11.038;2023-03-31T11:02:19;25.10;1.00
30865;DHT22;17574;49.418;11.038;2023-03-31T11:04:54;23.90;1.00
30865;DHT22;17574;49.418;11.038;2023-03-31T11:12:31;21.20;1.00
30865;DHT22;17574;49.418;11.038;2023-03-31T11:15:06;20.50;1.00
30865;DHT22;17574;49.418;11.038;2023-03-31T11:17:47;20.80;1.00
30865;DHT22;17574;49.418;11.038;2023-03-31T11:20:32;22.10;1.00
30865;DHT22;17574;49.418;11.038;2023-03-31T11:23:11;22.50;1.00
30865;DHT22;17574;49.418;11.038;2023-03-31T11:28:31;22.30;1.00
30865;DHT22;17574;49.418;11.038;2023-03-31T11:31:13;22.00;1.00
30865;DHT22;17574;49.418;11.038;2023-03-31T11:39:09;21.20;1.00
30865;DHT22;17574;49.418;11.038;2023-03-31T11:41:39;22.70;1.00
30865;DHT22;17574;49.418;11.038;2023-03-31T11:44:10;24.50;1.00
30865;DHT22;17574;49.418;11.038;2023-03-31T11:46:39;25.50;1.00
30865;DHT22;17574;49.418;11.038;2023-03-31T11:51:54;24.80;1.00
30865;DHT22;17574;49.418;11.038;2023-03-31T11:54:35;23.80;1.00
30865;DHT22;17574;49.418;11.038;2023-03-31T11:57:09;22.80;1.00
30865;DHT22;17574;49.418;11.038;2023-03-31T11:59:38;22.20;1.00
30865;DHT22;17574;49.418;11.038;2023-03-31T12:02:14;21.60;1.00
30865;DHT22;17574;49.418;11.038;2023-03-31T12:04:43;20.80;1.00
30865;DHT22;17574;49.418;11.038;2023-03-31T12:09:49;20.20;1.00
30865;DHT22;17574;49.418;11.038;2023-03-31T12:12:18;20.10;1.00
30865;DHT22;17574;49.418;11.038;2023-03-31T12:17:14;20.80;1.00
30865;DHT22;17574;49.418;11.038;2023-03-31T12:19:46;21.80;1.00
30865;DHT22;17574;49.418;11.038;2023-03-31T12:22:16;22.60;1.00
30865;DHT22;17574;49.418;11.038;2023-03-31T12:24:44;23.40;1.00
30865;DHT22;17574;49.418;11.038;2023-03-31T12:29:59;24.10;1.00
30865;DHT22;17574;49.418;11.038;2023-03-31T12:32:33;24.10;1.00
30865;DHT22;17574;49.418;11.038;2023-03-31T12:40:40;23.80;1.00
30865;DHT22;17574;49.418;11.038;2023-03-31T12:46:17;22.30;1.00
30865;DHT22;17574;49.418;11.038;2023-03-31T12:48:57;21.60;1.00
30865;DHT22;17574;49.418;11.038;2023-03-31T12:51:37;20.90;1.00
30865;DHT22;17574;49.418;11.038;2023-03-31T12:54:13;20.80;1.00
30865;DHT22;17574;49.418;11.038;2023-03-31T12:57:01;20.60;1.00
30865;DHT22;17574;49.418;11.038;2023-03-31T12:59:38;20.10;1.00
30865;DHT22;17574;49.418;11.038;2023-03-31T13:04:35;19.00;1.00
30865;DHT22;17574;49.418;11.038;2023-03-31T13:07:39;18.40;1.00
30865;DHT22;17574;49.418;11.038;2023-03-31T13:10:00;17.80;1.00
30865;DHT22;17574;49.418;11.038;2023-03-31T13:13:00;17.10;1.00
30865;DHT22;17574;49.418;11.038;2023-03-31T13:15:28;16.10;1.00
30865;DHT22;17574;49.418;11.038;2023-03-31T13:17:59;15.60;2.80
30865;DHT22;17574;49.418;11.038;2023-03-31T13:23:03;15.00;12.20
30865;DHT22;17574;49.418;11.038;2023-03-31T13:28:13;15.90;15.30
30865;DHT22;17574;49.418;11.038;2023-03-31T13:33:08;16.60;13.60
30865;DHT22;17574;49.418;11.038;2023-03-31T13:35:37;18.00;8.70
30865;DHT22;17574;49.418;11.038;2023-03-31T13:38:08;20.30;1.00
30865;DHT22;17574;49.418;11.038;2023-03-31T13:43:21;22.20;1.00
30865;DHT22;17574;49.418;11.038;2023-03-31T13:45:54;22.50;1.00
30865;DHT22;17574;49.418;11.038;2023-03-31T13:50:59;23.00;1.00
30865;DHT22;17574;49.418;11.038;2023-03-31T13:53:44;23.10;1.00
30865;DHT22;17574;49.418;11.038;2023-03-31T14:07:43;19.60;1.00
30865;DHT22;17574;49.418;11.038;2023-03-31T14:10:22;18.80;1.00
30865;DHT22;17574;49.418;11.038;2023-03-31T14:12:49;18.30;1.00
30865;DHT22;17574;49.418;11.038;2023-03-31T14:15:19;18.20;1.00
30865;DHT22;17574;49.418;11.038;2023-03-31T14:17:46;18.00;1.00
30865;DHT22;17574;49.418;11.038;2023-03-31T14:20:31;17.80;1.00
30865;DHT22;17574;49.418;11.038;2023-03-31T14:26:03;17.60;1.00
30865;DHT22;17574;49.418;11.038;2023-03-31T14:28:40;17.80;1.00
30865;DHT22;17574;49.418;11.038;2023-03-31T14:36:35;18.40;1.00
30865;DHT22;17574;49.418;11.038;2023-03-31T14:39:05;18.60;1.00
30865;DHT22;17574;49.418;11.038;2023-03-31T14:41:34;18.80;1.00
30865;DHT22;17574;49.418;11.038;2023-03-31T14:44:04;18.90;1.00
30865;DHT22;17574;49.418;11.038;2023-03-31T14:46:31;19.00;1.00
30865;DHT22;17574;49.418;11.038;2023-03-31T14:49:17;19.00;1.00
30865;DHT22;17574;49.418;11.038;2023-03-31T14:51:44;19.00;1.00
30865;DHT22;17574;49.418;11.038;2023-03-31T14:54:14;19.00;1.00
30865;DHT22;17574;49.418;11.038;2023-03-31T14:56:41;18.80;1.00
30865;DHT22;17574;49.418;11.038;2023-03-31T14:59:08;18.60;1.00
30865;DHT22;17574;49.418;11.038;2023-03-31T15:01:35;18.40;1.00
30865;DHT22;17574;49.418;11.038;2023-03-31T15:04:07;18.10;1.00
30865;DHT22;17574;49.418;11.038;2023-03-31T15:06:34;17.90;1.00
30865;DHT22;17574;49.418;11.038;2023-03-31T15:09:05;17.80;1.00
30865;DHT22;17574;49.418;11.038;2023-03-31T15:11:32;17.70;1.00
30865;DHT22;17574;49.418;11.038;2023-03-31T15:13:58;17.70;1.00
30865;DHT22;17574;49.418;11.038;2023-03-31T15:18:59;17.60;1.00
30865;DHT22;17574;49.418;11.038;2023-03-31T15:21:26;17.60;1.00
30865;DHT22;17574;49.418;11.038;2023-03-31T15:23:54;17.70;1.00
30865;DHT22;17574;49.418;11.038;2023-03-31T15:26:26;17.60;1.00
30865;DHT22;17574;49.418;11.038;2023-03-31T15:29:16;17.40;1.00
30865;DHT22;17574;49.418;11.038;2023-03-31T15:31:43;17.20;1.00
30865;DHT22;17574;49.418;11.038;2023-03-31T15:34:14;16.90;1.00
30865;DHT22;17574;49.418;11.038;2023-03-31T15:36:43;16.70;1.00
30865;DHT22;17574;49.418;11.038;2023-03-31T15:39:10;16.60;1.00
30865;DHT22;17574;49.418;11.038;2023-03-31T15:41:37;16.50;1.00
30865;DHT22;17574;49.418;11.038;2023-03-31T15:44:05;16.60;1.00
30865;DHT22;17574;49.418;11.038;2023-03-31T15:49:04;16.30;1.00
30865;DHT22;17574;49.418;11.038;2023-03-31T15:51:33;16.30;1.00
30865;DHT22;17574;49.418;11.038;2023-03-31T15:54:01;16.20;1.00
30865;DHT22;17574;49.418;11.038;2023-03-31T15:56:36;16.10;1.00
30865;DHT22;17574;49.418;11.038;2023-03-31T15:59:20;16.20;1.00
30865;DHT22;17574;49.418;11.038;2023-03-31T16:01:48;16.30;1.00
30865;DHT22;17574;49.418;11.038;2023-03-31T16:04:15;16.40;1.00
30865;DHT22;17574;49.418;11.038;2023-03-31T16:06:56;16.80;1.00
30865;DHT22;17574;49.418;11.038;2023-03-31T16:09:28;16.40;1.00
30865;DHT22;17574;49.418;11.038;2023-03-31T16:11:57;16.40;1.00
30865;DHT22;17574;49.418;11.038;2023-03-31T16:14:25;16.40;1.00
30865;DHT22;17574;49.418;11.038;2023-03-31T16:17:00;16.20;1.00
30865;DHT22;17574;49.418;11.038;2023-03-31T16:19:30;16.10;1.00
30865;DHT22;17574;49.418;11.038;2023-03-31T16:22:04;16.00;1.00
30865;DHT22;17574;49.418;11.038;2023-03-31T16:24:31;15.80;1.00
30865;DHT22;17574;49.418;11.038;2023-03-31T16:27:02;15.60;1.00
30865;DHT22;17574;49.418;11.038;2023-03-31T16:29:35;15.50;1.00
30865;DHT22;17574;49.418;11.038;2023-03-31T16:32:15;15.30;1.00
30865;DHT22;17574;49.418;11.038;2023-03-31T16:34:52;15.10;1.00
30865;DHT22;17574;49.418;11.038;2023-03-31T16:37:20;15.10;1.00
30865;DHT22;17574;49.418;11.038;2023-03-31T16:39:47;15.50;2.50
30865;DHT22;17574;49.418;11.038;2023-03-31T16:42:13;15.80;5.70
30865;DHT22;17574;49.418;11.038;2023-03-31T16:44:40;16.00;1.00
30865;DHT22;17574;49.418;11.038;2023-03-31T16:47:08;16.30;1.00
30865;DHT22;17574;49.418;11.038;2023-03-31T16:49:38;16.40;1.00
30865;DHT22;17574;49.418;11.038;2023-03-31T16:52:05;16.40;1.00
30865;DHT22;17574;49.418;11.038;2023-03-31T16:54:31;16.20;1.00
30865;DHT22;17574;49.418;11.038;2023-03-31T16:56:58;16.10;1.00
30865;DHT22;17574;49.418;11.038;2023-03-31T16:59:25;16.00;1.00
30865;DHT22;17574;49.418;11.038;2023-03-31T17:01:52;16.00;1.00
30865;DHT22;17574;49.418;11.038;2023-03-31T17:04:19;15.90;1.00
30865;DHT22;17574;49.418;11.038;2023-03-31T17:06:46;15.80;1.00
30865;DHT22;17574;49.418;11.038;2023-03-31T17:09:12;15.70;1.00
30865;DHT22;17574;49.418;11.038;2023-03-31T17:11:39;15.80;1.00
30865;DHT22;17574;49.418;11.038;2023-03-31T17:14:06;15.70;1.00
30865;DHT22;17574;49.418;11.038;2023-03-31T17:16:33;16.10;1.00
30865;DHT22;17574;49.418;11.038;2023-03-31T17:19:14;16.20;1.00
30865;DHT22;17574;49.418;11.038;2023-03-31T17:21:41;16.10;1.00
30865;DHT22;17574;49.418;11.038;2023-03-31T17:24:07;16.00;1.00
30865;DHT22;17574;49.418;11.038;2023-03-31T17:26:34;16.10;1.00
30865;DHT22;17574;49.418;11.038;2023-03-31T17:29:02;16.20;1.00
30865;DHT22;17574;49.418;11.038;2023-03-31T17:31:29;16.20;1.00
30865;DHT22;17574;49.418;11.038;2023-03-31T17:33:57;16.20;1.00
30865;DHT22;17574;49.418;11.038;2023-03-31T17:36:24;15.90;1.00
30865;DHT22;17574;49.418;11.038;2023-03-31T17:38:50;15.40;1.00
30865;DHT22;17574;49.418;11.038;2023-03-31T17:41:17;14.90;1.00
30865;DHT22;17574;49.418;11.038;2023-03-31T17:43:44;14.70;1.00
30865;DHT22;17574;49.418;11.038;2023-03-31T17:46:11;15.00;1.00